Weather at Værløse Air Base [CLOSED]

Public forecast

Using degrees Celsius for public forecast. Weather courtesy of forecast.io.

Closest aviation weather report (METAR) to Værløse Air Base

Closest report is Copenhagen Roskilde Airport, 12.8 nm (23.7 km) SSW.

2024/05/20 23:50 (retrieved 26 minutes ago)

EKRK 202350Z AUTO 08010KT 9999 BKN080/// 14/09 Q1017

Closest aviation forecast (TAF) to Værløse Air Base

Closest forecast is Leeuwarden Air Base, 274.9 nm (509.0 km) WSW.

2024/05/20 21:06 (retrieved 3 hours ago)

TAF TAF EHLW 202031Z 2021/2109 07006KT 9999 CAVOK PROB30 2021/2103 4000 BR MIFG PROB30 TEMPO 2104/2106 SCT005